Time;durP1;ratioP1;P1;durP2;ratioP2;P2;SDS_P1;SDS_P2;PMS_P1;PMS_P2;Temp;Humidity;BMP_temperature;BMP_pressure;BME280_temperature;BME280_humidity;BME280_pressure;Samples;Min_cycle;Max_cycle;Signal;HPM_P1;HPM_P2
2021/10/28 00:12:21;;;;;;;76.78;68.07;;;;;;;-0.62;100.00;102379.72;5026391;28;20045;-76
2021/10/28 00:14:53;;;;;;;80.50;71.22;;;;;;;-0.57;100.00;102380.28;5025220;28;20149;-77
2021/10/28 00:17:27;;;;;;;88.03;73.72;;;;;;;-0.50;100.00;102382.44;5024319;28;20050;-77
2021/10/28 00:19:54;;;;;;;85.53;73.28;;;;;;;-0.58;100.00;102378.59;5036406;28;20069;-78
2021/10/28 00:22:22;;;;;;;78.20;69.70;;;;;;;-0.59;100.00;102379.53;5025141;28;20111;-80
2021/10/28 00:24:49;;;;;;;85.47;76.22;;;;;;;-0.53;100.00;102382.63;5024059;28;20071;-77
2021/10/28 00:27:18;;;;;;;86.63;77.45;;;;;;;-0.52;100.00;102378.22;5026072;28;20124;-78
2021/10/28 00:29:45;;;;;;;98.45;87.40;;;;;;;-0.66;100.00;102381.69;5033048;28;20057;-78
2021/10/28 00:32:13;;;;;;;132.60;97.90;;;;;;;-0.70;100.00;102368.00;5027601;28;20042;-78
2021/10/28 00:34:41;;;;;;;116.85;95.25;;;;;;;-0.60;100.00;102370.03;5021266;28;20041;-77
2021/10/28 00:37:08;;;;;;;100.40;89.90;;;;;;;-0.62;100.00;102364.91;5027688;28;20057;-77
2021/10/28 00:39:35;;;;;;;118.88;98.72;;;;;;;-0.98;100.00;102371.38;5022265;28;20068;-77
2021/10/28 00:42:02;;;;;;;108.70;90.90;;;;;;;-1.01;100.00;102371.56;5027952;28;20072;-79
2021/10/28 00:44:29;;;;;;;106.90;88.20;;;;;;;-0.89;100.00;102369.16;5026205;28;20045;-77
2021/10/28 00:46:55;;;;;;;107.00;86.80;;;;;;;-0.80;100.00;102374.66;5020678;28;20478;-78
2021/10/28 00:49:24;;;;;;;106.88;85.35;;;;;;;-0.58;100.00;102361.16;5032180;28;20068;-78
2021/10/28 00:51:51;;;;;;;96.90;85.45;;;;;;;-0.65;100.00;102356.44;5021940;28;20081;-77
2021/10/28 00:54:21;;;;;;;88.05;78.45;;;;;;;-0.82;100.00;102350.44;5020047;28;20076;-78
2021/10/28 00:56:48;;;;;;;83.75;74.47;;;;;;;-0.75;100.00;102349.16;5027777;28;20053;-78
2021/10/28 00:59:15;;;;;;;91.32;81.47;;;;;;;-0.77;100.00;102351.00;5032098;28;20111;-81
2021/10/28 01:01:42;;;;;;;89.57;80.63;;;;;;;-0.81;100.00;102349.53;5024570;28;20112;-78
2021/10/28 01:04:10;;;;;;;79.65;67.88;;;;;;;-0.94;100.00;102351.16;5024952;28;20050;-77
2021/10/28 01:06:39;;;;;;;76.75;68.75;;;;;;;-1.08;100.00;102348.56;5022851;28;20054;-78
2021/10/28 01:09:07;;;;;;;70.55;63.00;;;;;;;-0.85;100.00;102341.97;5022613;28;20049;-77
2021/10/28 01:11:34;;;;;;;70.00;62.88;;;;;;;-0.90;100.00;102351.84;5023698;28;20108;-76
2021/10/28 01:14:02;;;;;;;73.45;62.25;;;;;;;-0.94;100.00;102341.59;5034551;28;20060;-78
2021/10/28 01:16:30;;;;;;;73.07;64.43;;;;;;;-1.13;100.00;102337.53;5022560;28;20046;-78
2021/10/28 01:18:57;;;;;;;80.05;65.63;;;;;;;-1.06;100.00;102342.31;5021430;28;20540;-77
2021/10/28 01:21:26;;;;;;;83.55;69.38;;;;;;;-0.98;100.00;102334.88;5025580;28;20438;-77
2021/10/28 01:23:57;;;;;;;92.55;70.25;;;;;;;-0.97;100.00;102335.69;5027595;28;20085;-77
2021/10/28 01:26:25;;;;;;;73.03;63.47;;;;;;;-1.25;100.00;102344.31;5030247;28;20049;-80
2021/10/28 01:28:55;;;;;;;71.65;63.90;;;;;;;-1.20;100.00;102344.91;5026885;28;20085;-77
2021/10/28 01:31:24;;;;;;;70.68;63.67;;;;;;;-1.27;100.00;102338.34;5027043;28;20062;-76
2021/10/28 01:33:52;;;;;;;72.35;65.13;;;;;;;-0.93;100.00;102342.44;5027237;28;20053;-77
2021/10/28 01:36:19;;;;;;;66.35;59.67;;;;;;;-1.16;100.00;102346.38;5030677;28;20053;-78
2021/10/28 01:38:47;;;;;;;67.63;61.03;;;;;;;-1.16;100.00;102346.38;5029530;28;20080;-77
2021/10/28 01:41:14;;;;;;;69.38;62.67;;;;;;;-0.91;100.00;102337.94;5026603;28;20108;-77
2021/10/28 01:43:43;;;;;;;71.75;64.60;;;;;;;-0.95;100.00;102341.66;5020107;28;20184;-77
2021/10/28 01:46:10;;;;;;;77.82;70.25;;;;;;;-1.05;100.00;102343.16;5022337;28;20081;-78
2021/10/28 01:48:39;;;;;;;79.47;72.05;;;;;;;-0.97;100.00;102339.16;5021603;28;20089;-78
2021/10/28 01:51:08;;;;;;;73.97;67.03;;;;;;;-0.85;100.00;102347.16;5034712;28;20053;-78
2021/10/28 01:53:39;;;;;;;71.05;64.38;;;;;;;-0.88;100.00;102334.31;5028426;28;20138;-77
2021/10/28 01:56:09;;;;;;;67.97;61.47;;;;;;;-0.94;100.00;102332.91;5023771;28;20104;-77
2021/10/28 01:58:36;;;;;;;72.40;65.80;;;;;;;-0.83;100.00;102330.50;5022161;28;20053;-77
2021/10/28 02:01:04;;;;;;;70.55;64.45;;;;;;;-0.84;100.00;102341.03;5134731;22;20061;-77
2021/10/28 02:03:31;;;;;;;76.32;69.43;;;;;;;-0.85;100.00;102345.41;5034024;28;20132;-77
2021/10/28 02:05:58;;;;;;;78.28;70.80;;;;;;;-0.94;100.00;102349.41;5035918;28;20131;-77
2021/10/28 02:08:30;;;;;;;81.65;73.50;;;;;;;-0.88;100.00;102342.97;5039868;28;20378;-78
2021/10/28 02:10:57;;;;;;;79.63;70.57;;;;;;;-0.94;100.00;102346.81;5032675;28;20080;-76
2021/10/28 02:13:25;;;;;;;82.10;74.82;;;;;;;-1.00;100.00;102341.09;5040824;28;20046;-76
2021/10/28 02:15:55;;;;;;;82.10;74.63;;;;;;;-0.88;100.00;102336.91;5041816;28;20045;-77
2021/10/28 02:18:22;;;;;;;77.75;70.93;;;;;;;-1.07;100.00;102345.00;5040029;28;20741;-76
2021/10/28 02:20:48;;;;;;;80.35;72.65;;;;;;;-1.00;100.00;102343.69;5036674;28;20115;-77
2021/10/28 02:23:15;;;;;;;78.35;70.82;;;;;;;-0.93;100.00;102345.88;5038996;28;20033;-78
2021/10/28 02:25:42;;;;;;;74.70;67.65;;;;;;;-0.99;100.00;102343.63;5036821;28;20089;-78
2021/10/28 02:28:09;;;;;;;86.45;78.80;;;;;;;-0.96;100.00;102338.22;5040164;28;20119;-78
2021/10/28 02:30:37;;;;;;;78.28;71.15;;;;;;;-0.85;100.00;102334.97;5037001;28;20479;-77
2021/10/28 02:33:04;;;;;;;81.57;74.15;;;;;;;-0.92;100.00;102339.72;5032623;28;20110;-77
2021/10/28 02:35:31;;;;;;;75.88;68.60;;;;;;;-1.00;100.00;102344.56;5036503;28;20053;-78
2021/10/28 02:37:57;;;;;;;70.00;63.58;;;;;;;-1.02;100.00;102345.59;5031229;28;20117;-77
2021/10/28 02:40:24;;;;;;;70.78;64.68;;;;;;;-1.01;100.00;102340.25;5032832;28;20057;-78
2021/10/28 02:42:51;;;;;;;68.18;61.72;;;;;;;-1.05;100.00;102349.22;5037591;28;20057;-76
2021/10/28 02:45:18;;;;;;;67.90;61.67;;;;;;;-0.87;100.00;102347.28;5043756;28;20061;-76
2021/10/28 02:47:49;;;;;;;72.47;65.90;;;;;;;-0.92;100.00;102354.53;5037544;28;20127;-77
2021/10/28 02:50:16;;;;;;;77.97;69.75;;;;;;;-0.97;100.00;102348.75;5042468;28;20048;-77
2021/10/28 02:52:44;;;;;;;82.32;74.03;;;;;;;-0.93;100.00;102353.69;5039143;28;20111;-76
2021/10/28 02:55:10;;;;;;;74.28;66.72;;;;;;;-0.95;100.00;102347.72;5036576;28;20057;-77
2021/10/28 02:57:40;;;;;;;79.63;71.15;;;;;;;-0.99;100.00;102345.41;5042833;28;20064;-77
2021/10/28 03:00:09;;;;;;;87.47;77.68;;;;;;;-1.01;100.00;102349.84;5042967;28;20045;-76
2021/10/28 03:02:35;;;;;;;88.65;79.40;;;;;;;-1.08;100.00;102346.78;5031925;28;20049;-77
2021/10/28 03:05:04;;;;;;;98.78;88.88;;;;;;;-1.10;100.00;102346.03;5031968;28;20044;-76
2021/10/28 03:07:32;;;;;;;89.05;79.70;;;;;;;-1.01;100.00;102342.88;5035987;28;20080;-77
2021/10/28 03:09:58;;;;;;;87.00;78.03;;;;;;;-1.32;100.00;102345.59;5036469;28;20453;-76
2021/10/28 03:12:25;;;;;;;85.38;75.70;;;;;;;-1.15;100.00;102345.44;5039176;28;20452;-76
2021/10/28 03:14:55;;;;;;;88.68;79.78;;;;;;;-1.20;100.00;102344.91;5037177;28;20046;-77
2021/10/28 03:17:30;;;;;;;87.95;78.85;;;;;;;-1.02;100.00;102350.81;5040449;28;20045;-77
2021/10/28 03:25:39;;;;;;;80.75;72.65;;;;;;;-0.90;100.00;102349.25;5033751;28;20171;-77
2021/10/28 03:28:12;;;;;;;83.47;73.70;;;;;;;-0.83;100.00;102353.16;5042613;28;20061;-77
2021/10/28 03:30:40;;;;;;;82.55;73.72;;;;;;;-1.22;100.00;102359.78;5031805;28;20049;-77
2021/10/28 03:33:11;;;;;;;88.88;79.97;;;;;;;-1.16;100.00;102356.81;5032547;28;20080;-78
2021/10/28 03:35:38;;;;;;;90.43;81.38;;;;;;;-1.08;100.00;102359.81;5034957;28;20065;-77
2021/10/28 03:38:12;;;;;;;87.88;79.28;;;;;;;-0.99;100.00;102358.44;5039885;28;20072;-78
2021/10/28 03:43:35;;;;;;;85.35;77.60;;;;;;;-1.13;100.00;102359.25;5012266;28;20100;-77
2021/10/28 04:08:37;;;;;;;86.68;79.32;;;;;;;-1.20;100.00;102357.94;5034380;28;20045;-77
2021/10/28 04:19:29;;;;;;;72.28;64.85;;;;;;;0.55;100.00;102370.66;5009938;28;20152;-76
2021/10/28 04:30:10;;;;;;;60.00;54.88;;;;;;;-0.44;100.00;102359.50;5027510;28;20072;-79
2021/10/28 04:32:39;;;;;;;61.58;56.20;;;;;;;-0.88;100.00;102361.22;5027332;28;20053;-78
2021/10/28 04:35:07;;;;;;;77.32;69.53;;;;;;;-1.20;100.00;102369.19;5030002;28;20057;-79
2021/10/28 04:37:34;;;;;;;80.82;67.45;;;;;;;-1.10;100.00;102372.09;5026566;28;20127;-79
2021/10/28 04:40:01;;;;;;;84.78;69.95;;;;;;;-1.17;100.00;102368.19;5024947;28;20054;-79
2021/10/28 04:42:29;;;;;;;82.55;71.90;;;;;;;-1.11;100.00;102370.44;5027357;28;20119;-79
2021/10/28 04:44:56;;;;;;;87.80;74.93;;;;;;;-1.18;100.00;102363.88;5028494;28;20053;-78
2021/10/28 04:47:23;;;;;;;106.95;83.30;;;;;;;-1.25;100.00;102367.78;5030185;28;20049;-79
2021/10/28 04:49:50;;;;;;;97.80;73.82;;;;;;;-1.36;100.00;102368.41;5023607;28;20112;-81
2021/10/28 04:52:16;;;;;;;89.70;73.65;;;;;;;-1.27;100.00;102375.69;5031234;28;20163;-78
2021/10/28 04:54:43;;;;;;;95.43;75.13;;;;;;;-1.10;100.00;102374.72;5031754;28;20054;-80
2021/10/28 04:57:10;;;;;;;74.47;63.17;;;;;;;-1.27;100.00;102380.06;5030222;28;20406;-78
2021/10/28 04:59:39;;;;;;;75.07;62.80;;;;;;;-1.33;100.00;102378.66;5029258;28;20099;-78
2021/10/28 05:02:06;;;;;;;86.32;67.70;;;;;;;-1.17;100.00;102389.88;5029718;28;20054;-79
2021/10/28 05:04:33;;;;;;;84.68;64.70;;;;;;;-0.98;100.00;102392.25;5031163;28;20071;-79
2021/10/28 05:07:00;;;;;;;87.97;71.30;;;;;;;-0.96;100.00;102394.78;5028186;28;20478;-78
2021/10/28 05:09:28;;;;;;;86.68;69.13;;;;;;;-0.86;100.00;102389.84;5025378;28;20053;-79
2021/10/28 05:11:55;;;;;;;89.10;68.75;;;;;;;-0.89;100.00;102398.69;5032518;28;20072;-79
2021/10/28 05:14:23;;;;;;;92.63;73.20;;;;;;;-1.04;100.00;102408.25;5029039;28;20120;-78
2021/10/28 05:16:56;;;;;;;97.97;78.28;;;;;;;-0.84;100.00;102403.66;5028924;28;20059;-80
2021/10/28 05:19:23;;;;;;;89.40;74.18;;;;;;;-0.52;100.00;102407.78;5025388;28;20045;-79
2021/10/28 05:21:50;;;;;;;110.00;89.30;;;;;;;-0.50;100.00;102407.69;5029340;28;20417;-78
2021/10/28 05:24:17;;;;;;;107.53;81.18;;;;;;;-0.48;100.00;102416.28;5031445;28;20131;-79
2021/10/28 05:26:44;;;;;;;96.55;74.28;;;;;;;-0.28;100.00;102415.06;5025981;28;20049;-78
2021/10/28 05:29:11;;;;;;;100.05;79.80;;;;;;;-0.19;100.00;102416.28;5023362;28;20467;-78
2021/10/28 05:31:38;;;;;;;106.28;82.60;;;;;;;0.04;100.00;102425.31;5024847;28;20037;-79
2021/10/28 05:34:06;;;;;;;100.85;85.15;;;;;;;0.08;100.00;102424.19;5026831;28;20041;-81
2021/10/28 05:36:33;;;;;;;113.78;93.80;;;;;;;0.27;100.00;102427.28;5029842;28;20107;-79
2021/10/28 05:38:59;;;;;;;106.82;94.57;;;;;;;0.43;100.00;102429.81;5029960;28;20188;-79
2021/10/28 05:41:27;;;;;;;110.10;92.72;;;;;;;0.38;100.00;102429.25;5029799;28;20128;-79
2021/10/28 05:43:54;;;;;;;113.25;93.40;;;;;;;0.48;100.00;102435.56;5033103;28;20392;-79
2021/10/28 05:46:21;;;;;;;117.40;96.90;;;;;;;0.76;100.00;102432.03;5034549;28;20396;-79
2021/10/28 05:48:47;;;;;;;107.65;91.57;;;;;;;0.86;100.00;102435.69;5034439;28;20440;-77
2021/10/28 05:51:16;;;;;;;108.72;91.13;;;;;;;1.16;100.00;102444.25;5035161;28;20103;-79
2021/10/28 05:53:44;;;;;;;99.97;84.60;;;;;;;1.05;100.00;102450.19;5031270;28;20084;-78
2021/10/28 05:56:11;;;;;;;105.68;90.75;;;;;;;1.56;100.00;102447.63;5027393;28;20061;-79
2021/10/28 05:58:37;;;;;;;99.65;87.55;;;;;;;1.54;100.00;102449.50;5025796;28;20045;-79
2021/10/28 06:01:04;;;;;;;112.78;100.05;;;;;;;1.75;100.00;102450.66;5026104;28;20107;-78
2021/10/28 06:03:32;;;;;;;120.15;97.85;;;;;;;1.91;100.00;102452.25;5035563;28;20555;-80
2021/10/28 06:05:59;;;;;;;101.50;86.50;;;;;;;2.14;100.00;102450.59;5028111;28;20046;-79
2021/10/28 06:08:27;;;;;;;100.28;82.63;;;;;;;2.31;100.00;102450.25;5029067;28;20453;-78
2021/10/28 06:10:54;;;;;;;96.88;86.40;;;;;;;2.82;100.00;102452.66;5033521;28;20092;-78
2021/10/28 06:13:22;;;;;;;94.72;82.78;;;;;;;3.02;100.00;102448.56;5029141;28;20528;-78
2021/10/28 06:15:49;;;;;;;105.13;82.40;;;;;;;2.71;100.00;102448.19;5032465;28;20507;-79
2021/10/28 06:18:37;;;;;;;102.68;82.13;;;;;;;3.29;100.00;102452.69;5034652;28;20052;-78
2021/10/28 06:21:04;;;;;;;87.88;75.45;;;;;;;3.44;100.00;102446.28;5030916;28;20460;-83
2021/10/28 06:23:33;;;;;;;100.00;85.78;;;;;;;3.90;100.00;102456.72;5026746;28;20049;-80
2021/10/28 06:26:00;;;;;;;107.10;81.75;;;;;;;4.17;100.00;102452.84;5032221;28;20057;-78
2021/10/28 06:28:26;;;;;;;84.70;75.57;;;;;;;4.18;100.00;102456.34;5033277;28;20049;-78
2021/10/28 06:30:53;;;;;;;91.30;81.93;;;;;;;4.74;100.00;102459.66;5032694;28;20037;-78
2021/10/28 06:33:21;;;;;;;82.90;73.88;;;;;;;4.65;100.00;102449.06;5032312;28;20099;-79
2021/10/28 06:35:49;;;;;;;81.47;72.82;;;;;;;4.50;100.00;102445.88;5033458;28;20046;-78
2021/10/28 06:38:16;;;;;;;82.80;74.25;;;;;;;5.22;100.00;102453.94;5031390;28;20049;-77
2021/10/28 06:40:45;;;;;;;80.03;72.10;;;;;;;5.95;100.00;102441.59;5034191;28;20057;-79
2021/10/28 06:43:11;;;;;;;78.25;70.85;;;;;;;5.63;100.00;102454.91;5030971;28;20049;-78
2021/10/28 06:45:38;;;;;;;77.63;70.60;;;;;;;5.84;100.00;102461.91;5030434;28;20417;-78
2021/10/28 06:48:07;;;;;;;78.55;70.75;;;;;;;6.33;100.00;102450.59;5030877;28;20046;-79
2021/10/28 06:50:40;;;;;;;75.05;67.25;;;;;;;6.02;100.00;102449.81;5032630;28;20080;-79
2021/10/28 06:53:11;;;;;;;78.55;70.72;;;;;;;6.23;100.00;102456.81;5030218;28;20457;-79
2021/10/28 06:55:44;;;;;;;77.22;69.75;;;;;;;6.66;100.00;102451.22;5034535;28;20064;-78
2021/10/28 07:03:40;;;;;;;75.97;68.55;;;;;;;7.38;100.00;102447.25;5027452;28;20179;-79
2021/10/28 07:06:11;;;;;;;79.53;71.85;;;;;;;8.15;100.00;102448.78;5028658;28;20453;-80
2021/10/28 07:08:41;;;;;;;77.53;70.05;;;;;;;8.17;100.00;102449.47;5030122;28;20049;-78
2021/10/28 07:11:10;;;;;;;76.22;69.40;;;;;;;9.29;100.00;102446.41;5028882;28;20469;-79
2021/10/28 07:13:41;;;;;;;74.10;67.50;;;;;;;8.81;100.00;102445.03;5032687;28;20520;-79
2021/10/28 07:16:17;;;;;;;74.15;67.43;;;;;;;9.11;100.00;102453.56;5030633;28;20046;-79
2021/10/28 07:18:50;;;;;;;76.80;69.68;;;;;;;9.40;100.00;102446.13;5022914;28;20140;-78
2021/10/28 07:24:23;;;;;;;78.47;71.00;;;;;;;9.18;100.00;102451.94;5027147;28;20088;-79
2021/10/28 07:32:45;;;;;;;73.43;66.53;;;;;;;10.38;100.00;102440.47;4988900;28;20146;-78
2021/10/28 07:38:29;;;;;;;75.57;68.43;;;;;;;10.30;100.00;102438.59;4951591;28;20401;-77
2021/10/28 08:19:27;;;;;;;80.65;72.70;;;;;;;15.53;100.00;102414.75;5115897;27;20154;-80
2021/10/28 08:21:54;;;;;;;77.60;70.18;;;;;;;15.12;100.00;102412.03;5109723;27;20043;-81
2021/10/28 08:29:55;;;;;;;75.13;67.75;;;;;;;15.51;100.00;102411.44;5123273;27;20551;-80
2021/10/28 08:32:21;;;;;;;72.85;66.10;;;;;;;17.17;100.00;102414.53;5116935;27;20062;-78
2021/10/28 08:34:50;;;;;;;76.90;69.55;;;;;;;17.42;100.00;102410.38;5118802;27;20048;-80
2021/10/28 08:37:18;;;;;;;74.43;67.45;;;;;;;16.32;100.00;102405.41;5112154;27;20059;-77
2021/10/28 08:39:48;;;;;;;78.30;70.38;;;;;;;16.85;100.00;102408.19;5117175;27;20481;-78
2021/10/28 08:42:16;;;;;;;75.47;68.47;;;;;;;16.04;100.00;102405.53;5106554;28;20044;-78
2021/10/28 08:44:46;;;;;;;73.57;66.70;;;;;;;16.93;100.00;102404.44;5111667;27;20047;-79
2021/10/28 08:47:14;;;;;;;76.03;69.18;;;;;;;16.14;100.00;102402.47;5106444;27;20058;-82
2021/10/28 08:49:45;;;;;;;72.32;65.95;;;;;;;16.82;100.00;102411.25;5114723;27;20048;-80
2021/10/28 08:52:31;;;;;;;74.95;67.63;;;;;;;17.71;100.00;102407.19;5097284;27;20048;-79
2021/10/28 08:55:07;;;;;;;75.45;68.18;;;;;;;17.53;100.00;102410.56;5095678;28;20040;-78
2021/10/28 09:25:29;;;;;;;73.93;66.95;;;;;;;16.79;100.00;102392.88;5089654;28;20066;-79
2021/10/28 09:28:05;;;;;;;;;;;;;;;16.58;100.00;102395.72;5094676;28;20432;-77
2021/10/28 09:30:38;;;;;;;71.70;65.07;;;;;;;16.37;100.00;102389.53;5091650;28;19947;-77
2021/10/28 09:33:06;;;;;;;72.55;65.95;;;;;;;16.89;100.00;102389.81;5095070;27;20056;-78
2021/10/28 09:35:50;;;;;;;74.03;66.57;;;;;;;17.45;100.00;102391.16;5098199;28;20144;-79
2021/10/28 09:44:08;;;;;;;75.25;68.30;;;;;;;17.27;100.00;102381.06;5093759;28;20143;-79
2021/10/28 09:46:42;;;;;;;76.65;69.18;;;;;;;18.38;100.00;102382.66;5094798;28;20127;-79
2021/10/28 09:52:01;;;;;;;72.60;66.00;;;;;;;17.00;100.00;102372.22;5095668;28;20047;-80
2021/10/28 09:54:35;;;;;;;73.53;66.97;;;;;;;19.25;100.00;102358.53;5095039;28;20039;-79
2021/10/28 09:59:53;;;;;;;77.93;70.63;;;;;;;17.98;100.00;102372.97;5096181;28;20092;-79
2021/10/28 10:02:24;;;;;;;80.97;73.47;;;;;;;15.56;100.00;102365.34;5098400;28;20483;-79
2021/10/28 10:04:51;;;;;;;77.68;70.18;;;;;;;18.27;100.00;102351.91;5092730;27;20160;-80
2021/10/28 10:07:21;;;;;;;73.72;67.03;;;;;;;18.80;98.44;102348.81;5097264;28;20322;-78
2021/10/28 10:09:48;;;;;;;78.38;71.28;;;;;;;18.33;100.00;102353.72;5093834;28;20052;-79
2021/10/28 10:12:15;;;;;;;76.57;69.47;;;;;;;17.84;100.00;102350.72;5093976;28;20277;-79
2021/10/28 10:14:43;;;;;;;75.05;67.88;;;;;;;18.96;96.60;102344.75;5093276;28;20113;-80
2021/10/28 10:17:12;;;;;;;76.82;69.65;;;;;;;17.44;100.00;102351.91;5094728;28;20059;-78
2021/10/28 10:19:44;;;;;;;79.22;71.30;;;;;;;17.32;99.33;102349.03;5097012;28;20055;-79
2021/10/28 10:22:21;;;;;;;79.72;72.43;;;;;;;18.39;100.00;102341.28;5093190;28;20533;-78
2021/10/28 10:25:04;;;;;;;77.18;69.40;;;;;;;17.81;100.00;102343.09;5090273;28;20060;-77
2021/10/28 11:27:22;;;;;;;77.65;70.35;;;;;;;18.98;68.71;102281.53;5080740;28;20490;-79
2021/10/28 12:17:22;;;;;;;51.85;47.75;;;;;;;21.19;59.21;102233.88;5099873;28;20497;-77
2021/10/28 12:28:59;;;;;;;48.70;44.75;;;;;;;20.53;55.60;102217.94;5095681;28;20052;-78
2021/10/28 12:45:34;;;;;;;54.72;50.38;;;;;;;20.75;61.40;102206.53;5099082;28;20104;-79
2021/10/28 12:51:05;;;;;;;52.85;48.50;;;;;;;20.91;63.49;102205.78;5104686;28;20177;-79
2021/10/28 12:53:51;;;;;;;50.15;45.88;;;;;;;20.61;60.07;102197.88;5101358;28;20075;-77
2021/10/28 12:56:49;;;;;;;50.55;46.47;;;;;;;20.23;63.11;102193.75;5103390;27;20058;-77
2021/10/28 13:02:26;;;;;;;54.20;49.90;;;;;;;19.18;71.78;102191.59;5097009;28;20120;-78
2021/10/28 13:35:53;;;;;;;48.75;44.53;;;;;;;18.87;64.62;102184.56;5057490;28;20056;-79
2021/10/28 13:38:42;;;;;;;51.95;47.67;;;;;;;18.99;62.65;102178.19;5098528;28;20043;-79
2021/10/28 13:49:37;;;;;;;50.95;46.20;;;;;;;18.22;72.17;102180.47;5100071;28;20101;-79
2021/10/28 13:52:15;;;;;;;46.08;42.30;;;;;;;15.78;98.67;102184.72;5105116;28;20556;-78
2021/10/28 13:54:59;;;;;;;47.55;43.80;;;;;;;17.36;87.69;102179.22;5094299;28;20498;-77
2021/10/28 14:22:53;;;;;;;71.22;65.05;;;;;;;15.52;100.00;102176.63;5035223;28;20040;-76
2021/10/28 14:37:04;;;;;;;66.77;60.67;;;;;;;14.00;100.00;102172.13;5064215;28;20121;-78
2021/10/28 15:28:57;;;;;;;77.90;69.53;;;;;;;10.00;100.00;102179.00;5041662;28;20103;-80
2021/10/28 15:34:33;;;;;;;78.50;71.05;;;;;;;9.65;100.00;102183.59;5045260;28;19940;-78
2021/10/28 15:37:04;;;;;;;73.93;66.97;;;;;;;9.38;100.00;102182.94;5044283;28;20087;-77
2021/10/28 15:39:38;;;;;;;85.45;76.20;;;;;;;9.35;100.00;102182.44;5037644;28;20399;-77
2021/10/28 16:23:31;;;;;;;124.05;99.38;;;;;;;7.43;100.00;102200.97;5037337;28;20048;-77
2021/10/28 16:26:01;;;;;;;122.25;99.35;;;;;;;10.03;100.00;102199.91;5040559;28;20073;-80
2021/10/28 16:28:29;;;;;;;136.13;103.50;;;;;;;8.31;100.00;102209.84;5046672;28;20144;-80
2021/10/28 16:30:56;;;;;;;154.77;110.05;;;;;;;7.27;100.00;102196.34;5050646;28;20049;-82
2021/10/28 16:33:23;;;;;;;125.68;94.07;;;;;;;7.19;100.00;102204.16;5044321;28;20053;-79
2021/10/28 16:35:50;;;;;;;139.00;101.95;;;;;;;6.88;100.00;102205.28;5046127;28;20068;-79
2021/10/28 16:38:19;;;;;;;146.65;100.00;;;;;;;6.79;100.00;102207.97;5052418;28;20106;-81
2021/10/28 16:40:46;;;;;;;137.52;97.40;;;;;;;6.64;100.00;102207.59;5041095;28;20454;-78
2021/10/28 16:43:13;;;;;;;132.07;96.78;;;;;;;6.69;100.00;102207.16;5051600;28;20110;-81
2021/10/28 16:45:45;;;;;;;135.82;99.05;;;;;;;6.60;100.00;102193.84;5040951;28;20045;-81
2021/10/28 16:48:12;;;;;;;160.20;113.95;;;;;;;6.74;100.00;102197.81;5042547;28;20265;-79
2021/10/28 16:50:39;;;;;;;159.23;117.65;;;;;;;6.38;100.00;102205.59;5042303;28;20188;-78
2021/10/28 16:53:07;;;;;;;166.60;129.25;;;;;;;6.32;100.00;102210.56;5045806;28;20099;-81
2021/10/28 16:55:34;;;;;;;150.48;116.13;;;;;;;6.05;100.00;102211.28;5038210;28;20574;-78
2021/10/28 16:58:01;;;;;;;126.95;97.32;;;;;;;6.02;100.00;102217.72;5040083;28;20076;-80
2021/10/28 17:00:28;;;;;;;127.10;99.18;;;;;;;6.13;100.00;102220.19;5038527;28;20542;-81
2021/10/28 17:02:56;;;;;;;117.47;93.60;;;;;;;5.92;100.00;102219.47;5037839;28;20449;-78
2021/10/28 17:05:24;;;;;;;121.78;95.47;;;;;;;6.03;100.00;102216.72;5045743;28;20061;-78
2021/10/28 17:07:50;;;;;;;114.68;96.50;;;;;;;5.85;100.00;102224.47;5037086;28;20045;-79
2021/10/28 17:10:17;;;;;;;120.60;98.97;;;;;;;6.03;100.00;102224.63;5041056;28;20045;-79
2021/10/28 17:12:44;;;;;;;118.05;95.20;;;;;;;5.90;100.00;102221.38;5040564;28;20399;-81
2021/10/28 17:15:11;;;;;;;119.47;102.03;;;;;;;5.85;100.00;102221.81;5033513;28;20092;-78
2021/10/28 17:17:38;;;;;;;124.93;105.75;;;;;;;5.59;100.00;102226.78;5042601;28;20045;-79
2021/10/28 17:20:08;;;;;;;123.18;103.07;;;;;;;5.49;100.00;102224.13;5037397;28;20046;-79
2021/10/28 17:22:35;;;;;;;148.45;116.07;;;;;;;5.59;100.00;102223.31;5040521;28;20092;-79
2021/10/28 17:25:04;;;;;;;126.65;104.07;;;;;;;5.50;100.00;102225.78;5045012;28;20091;-78
2021/10/28 17:27:32;;;;;;;141.18;116.65;;;;;;;5.01;100.00;102224.81;5049273;28;20118;-78
2021/10/28 17:29:59;;;;;;;146.63;121.93;;;;;;;5.25;100.00;102221.84;5044437;28;20048;-80
2021/10/28 17:32:27;;;;;;;157.20;121.53;;;;;;;5.22;100.00;102223.94;5044004;28;20461;-79
2021/10/28 17:34:53;;;;;;;150.07;119.15;;;;;;;5.29;100.00;102230.31;5044020;28;20461;-78
2021/10/28 17:37:23;;;;;;;153.85;118.57;;;;;;;5.45;100.00;102227.19;5049882;28;20477;-79
2021/10/28 17:39:49;;;;;;;141.40;116.10;;;;;;;5.21;100.00;102228.38;5043672;28;20139;-80
2021/10/28 17:42:19;;;;;;;147.00;112.05;;;;;;;5.16;100.00;102220.03;5051789;28;20114;-79
2021/10/28 17:44:51;;;;;;;121.28;101.63;;;;;;;4.99;100.00;102233.81;5044165;28;20123;-78
2021/10/28 17:47:18;;;;;;;116.65;100.05;;;;;;;4.91;100.00;102223.94;5041430;28;20041;-80
2021/10/28 17:49:45;;;;;;;113.03;100.47;;;;;;;4.88;100.00;102236.56;5044805;28;20044;-78
2021/10/28 17:52:14;;;;;;;124.20;111.35;;;;;;;4.86;100.00;102218.25;5045630;28;20452;-79
2021/10/28 17:54:42;;;;;;;117.40;99.70;;;;;;;4.79;100.00;102227.63;5044802;28;20076;-79
2021/10/28 17:57:09;;;;;;;112.40;100.03;;;;;;;4.62;100.00;102225.59;5043772;28;20057;-80
2021/10/28 17:59:35;;;;;;;121.25;104.57;;;;;;;4.41;100.00;102223.81;5038487;28;20053;-78
2021/10/28 18:02:03;;;;;;;121.85;105.30;;;;;;;4.60;100.00;102220.47;5041545;28;20531;-80
2021/10/28 18:04:29;;;;;;;121.13;107.95;;;;;;;4.47;100.00;102225.09;5045884;28;20045;-80
2021/10/28 18:06:56;;;;;;;127.55;107.55;;;;;;;4.53;100.00;102220.13;5042908;28;20498;-80
2021/10/28 18:09:24;;;;;;;129.20;111.43;;;;;;;4.57;100.00;102218.94;5044951;28;20477;-78
2021/10/28 18:11:54;;;;;;;115.95;103.25;;;;;;;4.47;100.00;102222.47;5039378;28;20068;-79
2021/10/28 18:14:21;;;;;;;131.35;104.97;;;;;;;4.52;100.00;102222.91;5042433;28;20386;-81
2021/10/28 18:16:48;;;;;;;131.80;104.78;;;;;;;4.57;100.00;102224.19;5045094;28;20389;-78
2021/10/28 18:19:15;;;;;;;129.52;101.78;;;;;;;4.71;100.00;102216.91;5047308;28;20041;-78
2021/10/28 18:21:45;;;;;;;143.80;106.25;;;;;;;4.66;100.00;102212.06;5044659;28;20060;-80
2021/10/28 18:24:14;;;;;;;142.50;112.95;;;;;;;4.47;100.00;102218.03;5040291;28;20123;-78
2021/10/28 18:26:41;;;;;;;119.82;104.35;;;;;;;4.30;100.00;102227.34;5044231;28;20120;-78
2021/10/28 18:29:09;;;;;;;117.50;105.03;;;;;;;4.20;100.00;102220.34;5039898;28;20121;-79
2021/10/28 18:31:35;;;;;;;120.90;107.80;;;;;;;4.14;100.00;102221.69;5041538;28;20048;-81
2021/10/28 18:34:04;;;;;;;141.45;115.78;;;;;;;4.20;100.00;102217.72;5046015;28;20523;-78
2021/10/28 18:36:33;;;;;;;146.80;117.45;;;;;;;4.07;100.00;102228.41;5041734;28;20497;-79
2021/10/28 18:39:00;;;;;;;168.48;119.88;;;;;;;4.11;100.00;102233.31;5037100;28;20052;-80
2021/10/28 18:41:28;;;;;;;177.25;126.45;;;;;;;3.93;100.00;102236.59;5042212;28;20130;-80
2021/10/28 18:43:55;;;;;;;189.35;127.03;;;;;;;4.08;100.00;102230.06;5043959;28;20052;-80
2021/10/28 18:46:23;;;;;;;168.75;125.68;;;;;;;3.79;100.00;102235.09;5050980;28;20051;-79
2021/10/28 18:48:51;;;;;;;178.57;129.30;;;;;;;3.74;100.00;102237.25;5050999;28;20076;-79
2021/10/28 18:51:18;;;;;;;211.93;132.98;;;;;;;3.67;100.00;102232.50;5048186;28;20045;-78
2021/10/28 18:53:49;;;;;;;212.23;128.75;;;;;;;3.69;100.00;102229.72;5041227;28;20049;-78
2021/10/28 18:56:17;;;;;;;187.45;119.15;;;;;;;3.89;100.00;102230.75;5047071;28;20128;-81